createdAt,value
2022-08-28T00:02:46.937Z,5.63
2022-08-28T00:07:54.151Z,6.97
2022-08-28T00:13:00.350Z,6.45
2022-08-28T00:18:07.148Z,6.45
2022-08-28T00:23:16.295Z,6.65
2022-08-28T00:28:23.819Z,6.88
2022-08-28T00:33:33.465Z,6.55
2022-08-28T00:38:40.628Z,6.32
2022-08-28T00:43:49.653Z,5.93
2022-08-28T00:48:55.039Z,6.50
2022-08-28T00:54:06.891Z,5.93
2022-08-28T00:59:16.449Z,6.45
2022-08-28T01:04:23.658Z,5.55
2022-08-28T01:09:33.042Z,5.97
2022-08-28T01:14:42.055Z,5.65
2022-08-28T01:25:02.288Z,7.28
2022-08-28T01:30:10.778Z,6.10
2022-08-28T01:35:19.250Z,5.50
2022-08-28T01:40:29.068Z,5.38
2022-08-28T01:45:37.878Z,6.00
2022-08-28T01:50:43.992Z,6.32
2022-08-28T01:55:51.181Z,6.28
2022-08-28T02:00:57.757Z,6.10
2022-08-28T02:06:04.221Z,6.68
2022-08-28T02:11:12.602Z,6.10
2022-08-28T02:16:18.915Z,5.78
2022-08-28T02:21:25.494Z,6.30
2022-08-28T02:26:33.147Z,5.80
2022-08-28T02:31:38.663Z,5.10
2022-08-28T02:36:45.474Z,6.03
2022-08-28T02:41:52.593Z,5.45
2022-08-28T02:46:58.362Z,5.30
2022-08-28T02:52:03.955Z,6.03
2022-08-28T02:57:11.415Z,5.68
2022-08-28T03:02:17.157Z,5.63
2022-08-28T03:07:23.082Z,6.00
2022-08-28T03:12:30.285Z,5.53
2022-08-28T03:17:37.166Z,5.15
2022-08-28T03:23:00.037Z,6.50
2022-08-28T03:28:07.147Z,6.28
2022-08-28T03:33:12.926Z,6.40
2022-08-28T03:38:19.629Z,5.95
2022-08-28T03:43:27.708Z,5.75
2022-08-28T03:48:35.314Z,5.90
2022-08-28T03:53:40.777Z,5.50
2022-08-28T03:58:47.620Z,6.05
2022-08-28T04:03:53.028Z,5.72
2022-08-28T04:09:00.006Z,5.32
2022-08-28T04:14:07.868Z,5.03
2022-08-28T04:19:13.542Z,6.18
2022-08-28T04:24:19.344Z,5.88
2022-08-28T04:29:26.437Z,5.75
2022-08-28T04:34:32.214Z,6.40
2022-08-28T04:39:37.822Z,6.43
2022-08-28T04:44:44.998Z,6.38
2022-08-28T04:49:50.680Z,6.25
2022-08-28T04:54:56.367Z,5.88
2022-08-28T05:00:03.572Z,5.97
2022-08-28T05:05:10.095Z,5.68
2022-08-28T05:10:16.039Z,5.50
2022-08-28T05:15:23.454Z,5.25
2022-08-28T05:20:29.066Z,6.18
2022-08-28T05:25:37.072Z,4.82
2022-08-28T05:30:44.519Z,6.97
2022-08-28T05:35:50.053Z,5.63
2022-08-28T05:40:55.645Z,5.50
2022-08-28T05:46:03.877Z,5.50
2022-08-28T05:51:13.109Z,5.70
2022-08-28T05:56:21.173Z,5.32
2022-08-28T06:01:31.093Z,4.88
2022-08-28T06:06:39.622Z,5.32
2022-08-28T06:11:46.441Z,4.70
2022-08-28T06:16:54.679Z,4.95
2022-08-28T06:22:07.126Z,5.17
2022-08-28T06:27:13.413Z,5.03
2022-08-28T06:32:21.446Z,4.93
2022-08-28T06:37:27.111Z,4.93
2022-08-28T06:42:32.775Z,4.78
2022-08-28T06:47:39.809Z,6.28
2022-08-28T06:52:45.389Z,5.18
2022-08-28T06:57:50.902Z,5.25
2022-08-28T07:02:58.427Z,5.80
2022-08-28T07:08:04.451Z,6.50
2022-08-28T07:13:10.228Z,5.63
2022-08-28T07:18:18.619Z,4.97
2022-08-28T07:23:27.741Z,6.00
2022-08-28T07:28:33.258Z,6.07
2022-08-28T07:33:41.726Z,5.55
2022-08-28T07:38:48.059Z,6.95
2022-08-28T07:44:13.304Z,6.60
2022-08-28T07:49:20.420Z,6.38
2022-08-28T07:54:26.553Z,7.80
2022-08-28T07:59:37.020Z,6.32
2022-08-28T08:04:44.851Z,6.75
2022-08-28T08:09:50.615Z,5.68
2022-08-28T08:14:56.539Z,6.38
2022-08-28T08:20:03.844Z,6.68
2022-08-28T08:25:11.319Z,6.15
2022-08-28T08:30:17.317Z,5.70
2022-08-28T08:35:25.089Z,5.97
2022-08-28T08:40:32.011Z,4.85
2022-08-28T08:45:38.475Z,5.75
2022-08-28T08:50:45.571Z,5.88
2022-08-28T08:55:52.484Z,4.82
2022-08-28T09:01:03.971Z,5.03
2022-08-28T09:06:20.613Z,4.97
2022-08-28T09:11:33.611Z,4.90
2022-08-28T09:16:41.866Z,4.90
2022-08-28T09:21:50.627Z,5.43
2022-08-28T09:26:59.185Z,4.60
2022-08-28T09:37:32.522Z,4.85
2022-08-28T09:42:55.733Z,4.20
2022-08-28T09:48:03.891Z,4.35
2022-08-28T09:53:20.330Z,4.17
2022-08-28T09:58:32.995Z,4.82
2022-08-28T10:03:46.419Z,4.50
2022-08-28T10:09:05.881Z,3.85
2022-08-28T10:14:20.964Z,3.67
2022-08-28T10:19:36.857Z,4.13
2022-08-28T10:25:01.537Z,3.05
2022-08-28T10:30:13.511Z,3.03
2022-08-28T10:35:23.013Z,3.60
2022-08-28T10:40:31.616Z,3.65
2022-08-28T10:45:37.466Z,3.50
2022-08-28T10:50:45.636Z,3.15
2022-08-28T10:55:58.854Z,3.15
2022-08-28T11:01:08.291Z,3.53
2022-08-28T11:06:17.717Z,3.35
2022-08-28T11:11:45.399Z,3.35
2022-08-28T11:16:51.819Z,3.57
2022-08-28T11:22:02.312Z,2.92
2022-08-28T11:27:21.141Z,2.58
2022-08-28T11:32:58.939Z,2.78
2022-08-28T11:38:05.066Z,3.10
2022-08-28T11:43:39.256Z,2.67
2022-08-28T11:48:51.574Z,2.67
2022-08-28T11:54:03.925Z,2.42
2022-08-28T11:59:35.267Z,2.75
2022-08-28T12:04:45.090Z,2.60
2022-08-28T12:09:51.407Z,3.10
2022-08-28T12:15:04.243Z,2.80
2022-08-28T12:20:12.672Z,2.80
2022-08-28T12:25:27.073Z,2.42
2022-08-28T12:30:38.317Z,2.83
2022-08-28T12:35:44.882Z,3.35
2022-08-28T12:40:53.593Z,2.92
2022-08-28T13:00:52.748Z,2.88
2022-08-28T13:06:02.583Z,2.80
2022-08-28T13:11:08.696Z,3.20
2022-08-28T13:16:38.041Z,2.30
2022-08-28T13:21:58.860Z,2.33
2022-08-28T13:27:08.064Z,2.50
2022-08-28T13:32:18.543Z,2.85
2022-08-28T13:37:42.545Z,2.60
2022-08-28T13:42:48.858Z,2.60
2022-08-28T13:47:57.108Z,2.40
2022-08-28T13:58:08.849Z,4.65
2022-08-28T14:03:33.285Z,2.63
2022-08-28T14:08:40.088Z,2.83
2022-08-28T14:13:47.200Z,2.40
2022-08-28T14:19:05.937Z,2.60
2022-08-28T14:24:12.186Z,2.10
2022-08-28T14:29:19.111Z,3.42
2022-08-28T14:34:26.382Z,2.45
2022-08-28T14:39:32.505Z,2.67
2022-08-28T14:44:38.293Z,3.22
2022-08-28T14:49:45.770Z,3.33
2022-08-28T14:54:51.262Z,3.42
2022-08-28T14:59:56.708Z,3.10
2022-08-28T15:05:03.735Z,3.50
2022-08-28T15:10:13.715Z,3.40
2022-08-28T15:15:20.708Z,3.65
2022-08-28T15:20:27.886Z,3.50
2022-08-28T15:25:33.656Z,3.20
2022-08-28T15:30:39.487Z,3.53
2022-08-28T15:35:46.921Z,4.20
2022-08-28T15:41:10.376Z,3.53
2022-08-28T15:46:16.373Z,3.90
2022-08-28T15:51:25.934Z,3.90
2022-08-28T15:56:31.647Z,3.70
2022-08-28T16:01:38.737Z,4.82
2022-08-28T16:06:46.282Z,4.70
2022-08-28T16:11:52.355Z,4.33
2022-08-28T16:16:58.443Z,4.80
2022-08-28T16:22:06.190Z,4.97
2022-08-28T16:27:15.420Z,4.68
2022-08-28T16:32:23.333Z,4.72
2022-08-28T16:37:39.945Z,5.10
2022-08-28T16:42:51.437Z,4.97
2022-08-28T16:47:57.696Z,5.38
2022-08-28T16:53:07.073Z,4.72
2022-08-28T16:58:16.847Z,5.05
2022-08-28T17:03:26.311Z,4.90
2022-08-28T17:08:33.722Z,5.35
2022-08-28T17:13:39.795Z,4.45
2022-08-28T17:18:47.986Z,5.18
2022-08-28T17:23:59.555Z,5.28
2022-08-28T17:29:06.109Z,5.95
2022-08-28T17:34:12.927Z,4.90
2022-08-28T17:39:21.229Z,4.03
2022-08-28T17:44:27.126Z,1.98
2022-08-28T17:49:33.506Z,2.03
2022-08-28T17:54:40.875Z,2.00
2022-08-28T17:59:47.074Z,3.30
2022-08-28T18:04:53.218Z,1.90
2022-08-28T18:10:01.507Z,1.92
2022-08-28T18:15:13.328Z,1.88
2022-08-28T18:20:21.215Z,2.05
2022-08-28T18:25:50.463Z,2.45
2022-08-28T18:30:58.421Z,2.22
2022-08-28T18:36:13.112Z,2.00
2022-08-28T18:41:21.439Z,1.90
2022-08-28T18:46:33.362Z,1.50
2022-08-28T18:51:39.625Z,1.77
2022-08-28T18:56:47.764Z,1.90
2022-08-28T19:01:55.889Z,1.65
2022-08-28T19:07:02.470Z,1.23
2022-08-28T19:12:10.927Z,1.60
2022-08-28T19:17:21.002Z,1.15
2022-08-28T19:22:28.573Z,1.58
2022-08-28T19:27:38.915Z,1.10
2022-08-28T19:32:46.535Z,1.35
2022-08-28T19:37:53.148Z,1.00
2022-08-28T19:43:00.815Z,1.15
2022-08-28T19:53:14.047Z,1.48
2022-08-28T19:58:21.479Z,1.13
2022-08-28T20:03:28.336Z,1.20
2022-08-28T20:08:34.892Z,1.25
2022-08-28T20:13:42.517Z,1.80
2022-08-28T20:18:50.998Z,0.90
2022-08-28T20:29:05.098Z,1.38
2022-08-28T20:34:11.049Z,1.10
2022-08-28T20:39:17.287Z,1.40
2022-08-28T20:44:25.005Z,1.50
2022-08-28T20:49:30.552Z,1.17
2022-08-28T20:54:39.633Z,1.00
2022-08-28T20:59:47.784Z,1.08
2022-08-28T21:04:54.020Z,1.13
2022-08-28T21:10:07.257Z,1.20
2022-08-28T21:15:15.178Z,1.10
2022-08-28T21:20:22.247Z,0.93
2022-08-28T21:25:27.901Z,1.20
2022-08-28T21:30:35.144Z,1.60
2022-08-28T21:35:42.199Z,1.27
2022-08-28T21:40:48.768Z,1.33
2022-08-28T21:46:00.965Z,1.30
2022-08-28T21:51:08.598Z,1.30
2022-08-28T21:56:17.711Z,1.33
2022-08-28T22:01:26.357Z,1.17
2022-08-28T22:06:32.057Z,1.67
2022-08-28T22:11:37.820Z,1.90
2022-08-28T22:16:45.140Z,1.83
2022-08-28T22:22:08.026Z,1.63
2022-08-28T22:27:14.686Z,1.60
2022-08-28T22:32:25.825Z,1.63
2022-08-28T22:37:31.498Z,2.10
2022-08-28T22:42:37.155Z,2.15
2022-08-28T22:47:45.174Z,2.22
2022-08-28T22:52:51.811Z,1.70
2022-08-28T22:57:57.181Z,2.03
2022-08-28T23:03:04.376Z,1.85
2022-08-28T23:08:10.047Z,2.15
2022-08-28T23:13:16.024Z,2.20
2022-08-28T23:18:23.011Z,2.28
2022-08-28T23:23:28.598Z,2.63
2022-08-28T23:28:35.239Z,2.40
2022-08-28T23:33:43.248Z,2.38
2022-08-28T23:38:48.830Z,2.67
2022-08-28T23:43:54.832Z,2.30
2022-08-28T23:49:03.950Z,2.43
2022-08-28T23:54:09.862Z,2.63
2022-08-28T23:59:16.444Z,2.10
